OTHH Airport Information

Runway Information
Airport Frequencies
Airport Navaids
Airport Weather Information & NOTAM
ADDS - METARS form results

(0654 UTC 19 May 2019)
Data provider http://aviationweather.gov/metar/data/
 
METAR text: OTHH 190600Z 07017KT 9999 FEW035 BKN120 30/18 Q1007 NOSIG
Conditions at: OTHH (DOHA HAMAD INTL , QA) observed 0600 UTC 19 May 2019
Temperature: 30.0°C (86°F)
Dewpoint: 18.0°C (64°F) [RH = 49%]
Pressure (altimeter): 29.73 inches Hg (1007.0 mb)
Winds: from the ENE (70 degrees) at 20 MPH (17 knots; 8.7 m/s)
Visibility: 6 or more miles (10+ km)
Ceiling: 12000 feet AGL
Clouds: few clouds at 3500 feet AGL
broken clouds at 12000 feet AGL
Weather: no significant weather observed at this time